createdAt,value
2023-04-09T00:01:38.429Z,98393.41
2023-04-09T00:04:05.157Z,98400.88
2023-04-09T00:06:31.784Z,98391.72
2023-04-09T00:08:58.211Z,98395.88
2023-04-09T00:11:24.653Z,98387.81
2023-04-09T00:13:51.318Z,98385.56
2023-04-09T00:16:17.788Z,98390.53
2023-04-09T00:18:44.320Z,98396.25
2023-04-09T00:21:11.219Z,98406.63
2023-04-09T00:23:37.800Z,98402.75
2023-04-09T00:26:04.513Z,98394.97
2023-04-09T00:28:30.928Z,98398.31
2023-04-09T00:30:57.471Z,98399.72
2023-04-09T00:33:23.969Z,98400.00
2023-04-09T00:35:54.680Z,98406.31
2023-04-09T00:38:22.220Z,98398.44
2023-04-09T00:40:50.620Z,98383.66
2023-04-09T00:43:17.973Z,98375.78
2023-04-09T00:45:45.476Z,98395.53
2023-04-09T00:48:16.402Z,98405.16
2023-04-09T00:50:43.186Z,98400.94
2023-04-09T00:53:11.002Z,98395.22
2023-04-09T00:55:40.334Z,98392.41
2023-04-09T00:58:07.073Z,98381.13
2023-04-09T01:00:33.546Z,98391.66
2023-04-09T01:03:00.879Z,98392.91
2023-04-09T01:05:34.311Z,98384.28
2023-04-09T01:08:08.241Z,98382.03
2023-04-09T01:10:42.832Z,98379.19
2023-04-09T01:13:24.057Z,98377.69
2023-04-09T01:16:00.728Z,98361.75
2023-04-09T01:18:41.148Z,98372.28
2023-04-09T01:21:27.504Z,98373.38
2023-04-09T01:24:36.884Z,98365.38
2023-04-09T01:27:08.332Z,98366.22
2023-04-09T01:29:39.177Z,98361.72
2023-04-09T01:32:07.845Z,98365.13
2023-04-09T01:34:35.404Z,98369.47
2023-04-09T01:37:03.731Z,98352.38
2023-04-09T01:39:31.370Z,98359.19
2023-04-09T01:41:57.994Z,98358.13
2023-04-09T01:44:29.017Z,98358.94
2023-04-09T01:46:57.460Z,98346.88
2023-04-09T01:49:28.430Z,98361.06
2023-04-09T01:51:56.482Z,98347.44
2023-04-09T01:54:22.974Z,98359.38
2023-04-09T01:56:49.486Z,98361.69
2023-04-09T01:59:16.200Z,98357.06
2023-04-09T02:01:47.154Z,98361.84
2023-04-09T02:04:22.156Z,98361.13
2023-04-09T02:06:52.668Z,98364.25
2023-04-09T02:09:21.215Z,98355.84
2023-04-09T02:11:49.887Z,98358.19
2023-04-09T02:14:18.672Z,98352.91
2023-04-09T02:16:46.488Z,98349.69
2023-04-09T02:19:12.888Z,98356.28
2023-04-09T02:21:39.413Z,98344.97
2023-04-09T02:24:06.001Z,98353.09
2023-04-09T02:26:32.484Z,98357.28
2023-04-09T02:28:58.976Z,98356.31
2023-04-09T02:31:26.403Z,98363.16
2023-04-09T02:33:54.214Z,98341.53
2023-04-09T02:36:23.419Z,98353.41
2023-04-09T02:38:49.989Z,98351.16
2023-04-09T02:41:16.658Z,98342.94
2023-04-09T02:43:43.065Z,98341.44
2023-04-09T02:46:09.552Z,98353.06
2023-04-09T02:48:35.955Z,98338.88
2023-04-09T02:51:05.528Z,98349.16
2023-04-09T02:53:32.007Z,98336.78
2023-04-09T02:56:01.247Z,98348.44
2023-04-09T02:58:30.542Z,98348.13
2023-04-09T03:00:59.627Z,98351.00
2023-04-09T03:03:26.374Z,98327.50
2023-04-09T03:05:53.922Z,98339.25
2023-04-09T03:08:20.327Z,98355.75
2023-04-09T03:10:46.767Z,98352.66
2023-04-09T03:13:13.258Z,98345.75
2023-04-09T03:15:39.833Z,98348.22
2023-04-09T03:18:06.353Z,98343.06
2023-04-09T03:20:32.877Z,98339.75
2023-04-09T03:23:02.114Z,98345.69
2023-04-09T03:25:30.610Z,98345.69
2023-04-09T03:27:57.074Z,98341.41
2023-04-09T03:30:23.573Z,98345.22
2023-04-09T03:32:52.469Z,98335.66
2023-04-09T03:35:18.958Z,98343.63
2023-04-09T03:37:48.346Z,98334.22
2023-04-09T03:40:14.919Z,98328.84
2023-04-09T03:42:43.200Z,98340.38
2023-04-09T03:45:09.868Z,98332.16
2023-04-09T03:47:36.459Z,98328.22
2023-04-09T03:50:03.357Z,98323.22
2023-04-09T03:52:37.060Z,98324.06
2023-04-09T03:55:04.648Z,98331.69
2023-04-09T03:57:32.798Z,98328.38
2023-04-09T03:59:59.240Z,98340.41
2023-04-09T04:02:27.160Z,98338.78
2023-04-09T04:04:53.895Z,98325.06
2023-04-09T04:07:20.384Z,98329.25
2023-04-09T04:09:46.900Z,98336.28
2023-04-09T04:12:13.369Z,98317.84
2023-04-09T04:14:39.803Z,98335.84
2023-04-09T04:17:06.302Z,98332.41
2023-04-09T04:19:34.186Z,98325.88
2023-04-09T04:22:00.692Z,98344.47
2023-04-09T04:24:27.134Z,98347.19
2023-04-09T04:26:53.551Z,98338.03
2023-04-09T04:29:20.073Z,98347.53
2023-04-09T04:31:46.623Z,98336.25
2023-04-09T04:34:13.265Z,98351.97
2023-04-09T04:36:39.787Z,98334.22
2023-04-09T04:39:06.219Z,98334.56
2023-04-09T04:41:35.208Z,98351.00
2023-04-09T04:44:01.704Z,98352.09
2023-04-09T04:46:28.185Z,98346.47
2023-04-09T04:48:54.845Z,98344.31
2023-04-09T04:51:21.460Z,98349.13
2023-04-09T04:53:47.926Z,98334.81
2023-04-09T04:56:15.635Z,98344.69
2023-04-09T04:58:42.841Z,98338.72
2023-04-09T05:01:09.448Z,98347.09
2023-04-09T05:03:36.072Z,98356.75
2023-04-09T05:06:04.072Z,98353.88
2023-04-09T05:08:30.950Z,98347.78
2023-04-09T05:10:57.511Z,98351.75
2023-04-09T05:13:24.274Z,98358.88
2023-04-09T05:15:50.882Z,98360.19
2023-04-09T05:18:17.661Z,98350.06
2023-04-09T05:20:44.257Z,98360.66
2023-04-09T05:23:10.811Z,98364.59
2023-04-09T05:25:37.316Z,98374.84
2023-04-09T05:28:06.658Z,98364.84
2023-04-09T05:30:36.510Z,98381.63
2023-04-09T05:33:04.543Z,98378.19
2023-04-09T05:35:31.109Z,98367.47
2023-04-09T05:37:57.626Z,98380.22
2023-04-09T05:40:24.229Z,98377.47
2023-04-09T05:42:50.728Z,98370.91
2023-04-09T05:45:17.287Z,98369.59
2023-04-09T05:47:43.828Z,98377.38
2023-04-09T05:50:11.515Z,98381.50
2023-04-09T05:52:37.957Z,98382.69
2023-04-09T05:55:09.771Z,98379.84
2023-04-09T05:57:36.565Z,98385.22
2023-04-09T06:00:06.553Z,98392.00
2023-04-09T06:02:36.057Z,98390.09
2023-04-09T06:05:06.095Z,98403.81
2023-04-09T06:07:34.493Z,98405.78
2023-04-09T06:10:04.718Z,98400.09
2023-04-09T06:12:31.155Z,98396.69
2023-04-09T06:14:57.608Z,98398.75
2023-04-09T06:17:24.060Z,98410.03
2023-04-09T06:19:50.580Z,98405.69
2023-04-09T06:22:17.077Z,98410.13
2023-04-09T06:24:43.574Z,98396.59
2023-04-09T06:27:10.040Z,98416.91
2023-04-09T06:29:36.456Z,98407.28
2023-04-09T06:32:05.857Z,98410.41
2023-04-09T06:34:34.377Z,98416.16
2023-04-09T06:37:00.794Z,98410.56
2023-04-09T06:39:27.927Z,98410.81
2023-04-09T06:41:54.460Z,98416.97
2023-04-09T06:44:21.795Z,98400.06
2023-04-09T06:46:48.279Z,98412.41
2023-04-09T06:49:15.108Z,98402.44
2023-04-09T06:51:41.917Z,98412.28
2023-04-09T06:54:08.802Z,98407.69
2023-04-09T06:56:35.631Z,98416.69
2023-04-09T06:59:03.771Z,98409.59
2023-04-09T07:01:30.829Z,98404.16
2023-04-09T07:03:57.799Z,98411.94
2023-04-09T07:06:24.589Z,98416.75
2023-04-09T07:08:51.375Z,98413.28
2023-04-09T07:11:17.958Z,98411.59
2023-04-09T07:13:44.430Z,98423.34
2023-04-09T07:16:11.108Z,98420.13
2023-04-09T07:18:37.676Z,98413.41
2023-04-09T07:21:07.012Z,98415.38
2023-04-09T07:23:37.182Z,98413.50
2023-04-09T07:26:06.803Z,98412.69
2023-04-09T07:28:36.787Z,98411.38
2023-04-09T07:31:06.260Z,98405.81
2023-04-09T07:33:36.599Z,98397.66
2023-04-09T07:36:06.685Z,98390.78
2023-04-09T07:38:37.077Z,98395.72
2023-04-09T07:41:06.582Z,98392.94
2023-04-09T07:43:34.657Z,98387.31
2023-04-09T07:46:01.443Z,98392.09
2023-04-09T07:48:29.454Z,98371.81
2023-04-09T07:50:56.929Z,98405.19
2023-04-09T07:53:23.441Z,98411.63
2023-04-09T07:55:53.015Z,98409.25
2023-04-09T07:58:19.501Z,98405.84
2023-04-09T08:00:46.245Z,98407.47
2023-04-09T08:03:14.083Z,98418.69
2023-04-09T08:05:41.251Z,98416.25
2023-04-09T08:08:08.006Z,98408.47
2023-04-09T08:10:35.688Z,98400.03
2023-04-09T08:13:05.039Z,98419.44
2023-04-09T08:15:37.206Z,98417.41
2023-04-09T08:18:07.233Z,98416.97
2023-04-09T08:20:37.064Z,98408.19
2023-04-09T08:23:04.957Z,98412.53
2023-04-09T08:25:34.034Z,98399.81
2023-04-09T08:28:00.488Z,98364.38
2023-04-09T08:30:27.253Z,98409.78
2023-04-09T08:32:53.800Z,98404.00
2023-04-09T08:35:20.493Z,98412.59
2023-04-09T08:37:47.212Z,98419.63
2023-04-09T08:40:13.787Z,98395.81
2023-04-09T08:42:46.008Z,98409.34
2023-04-09T08:45:13.522Z,98411.22
2023-04-09T08:47:43.018Z,98404.88
2023-04-09T08:50:10.026Z,98408.41
2023-04-09T08:52:37.687Z,98371.25
2023-04-09T08:55:05.218Z,98382.94
2023-04-09T08:57:38.368Z,98388.31
2023-04-09T09:00:06.013Z,98402.97
2023-04-09T09:02:36.479Z,98390.69
2023-04-09T09:05:04.867Z,98395.31
2023-04-09T09:07:34.809Z,98398.84
2023-04-09T09:10:04.984Z,98395.00
2023-04-09T09:12:39.685Z,98385.88
2023-04-09T09:15:26.301Z,98381.91
2023-04-09T09:17:58.397Z,98383.63
2023-04-09T09:20:27.323Z,98373.00
2023-04-09T09:22:56.953Z,98376.78
2023-04-09T09:25:26.272Z,98367.03
2023-04-09T09:27:54.692Z,98384.81
2023-04-09T09:30:27.594Z,98381.09
2023-04-09T09:33:04.605Z,98373.81
2023-04-09T09:35:31.294Z,98370.41
2023-04-09T09:38:04.461Z,98372.44
2023-04-09T09:40:30.990Z,98358.72
2023-04-09T09:42:58.009Z,98357.03
2023-04-09T09:45:26.114Z,98361.00
2023-04-09T09:50:25.260Z,98355.75
2023-04-09T09:52:58.926Z,98347.47
2023-04-09T09:55:30.931Z,98346.88
2023-04-09T09:58:00.666Z,98347.81
2023-04-09T10:00:28.853Z,98328.53
2023-04-09T10:03:12.169Z,98340.03
2023-04-09T10:05:40.974Z,98328.28
2023-04-09T10:08:07.982Z,98331.16
2023-04-09T10:10:36.519Z,98336.97
2023-04-09T10:13:05.364Z,98328.53
2023-04-09T10:15:35.385Z,98336.06
2023-04-09T10:18:02.031Z,98323.56
2023-04-09T10:20:35.708Z,98332.91
2023-04-09T10:23:09.623Z,98318.91
2023-04-09T10:25:36.176Z,98317.09
2023-04-09T10:28:05.716Z,98329.09
2023-04-09T10:30:36.580Z,98316.38
2023-04-09T10:33:17.087Z,98300.88
2023-04-09T10:35:46.917Z,98320.06
2023-04-09T10:38:15.149Z,98305.84
2023-04-09T10:40:47.381Z,98308.88
2023-04-09T10:43:14.511Z,98305.75
2023-04-09T10:45:42.078Z,98308.41
2023-04-09T10:48:13.705Z,98299.44
2023-04-09T10:50:44.237Z,98300.84
2023-04-09T10:53:26.437Z,98296.44
2023-04-09T10:55:54.110Z,98289.63
2023-04-09T10:58:20.641Z,98275.06
2023-04-09T11:00:48.613Z,98277.69
2023-04-09T11:03:25.295Z,98287.75
2023-04-09T11:05:52.703Z,98282.06
2023-04-09T11:08:19.586Z,98279.41
2023-04-09T11:10:49.041Z,98263.13
2023-04-09T11:13:18.627Z,98263.78
2023-04-09T11:15:46.107Z,98250.81
2023-04-09T11:18:20.253Z,98263.88
2023-04-09T11:20:47.073Z,98262.41
2023-04-09T11:23:14.079Z,98252.50
2023-04-09T11:25:40.699Z,98267.25
2023-04-09T11:28:08.427Z,98253.69
2023-04-09T11:30:38.629Z,98249.44
2023-04-09T11:33:10.772Z,98242.97
2023-04-09T11:35:37.521Z,98256.66
2023-04-09T11:38:11.523Z,98244.16
2023-04-09T11:40:47.695Z,98240.34
2023-04-09T11:43:16.613Z,98246.63
2023-04-09T11:45:44.324Z,98249.09
2023-04-09T11:48:11.558Z,98215.31
2023-04-09T11:50:38.137Z,98216.13
2023-04-09T11:53:21.157Z,98237.28
2023-04-09T11:55:52.466Z,98220.63
2023-04-09T11:58:22.608Z,98239.88
2023-04-09T12:00:49.169Z,98231.78
2023-04-09T12:03:16.715Z,98241.38
2023-04-09T12:05:50.948Z,98239.78
2023-04-09T12:08:23.870Z,98232.44
2023-04-09T12:10:53.375Z,98240.66
2023-04-09T12:13:21.219Z,98227.00
2023-04-09T12:15:49.746Z,98244.97
2023-04-09T12:18:16.483Z,98241.13
2023-04-09T12:20:44.524Z,98243.31
2023-04-09T12:23:12.437Z,98227.84
2023-04-09T12:25:41.108Z,98231.91
2023-04-09T12:28:09.297Z,98240.38
2023-04-09T12:30:38.809Z,98238.72
2023-04-09T12:33:07.616Z,98226.22
2023-04-09T12:35:36.814Z,98225.38
2023-04-09T12:38:07.096Z,98236.28
2023-04-09T12:40:36.946Z,98229.44
2023-04-09T12:43:03.531Z,98222.06
2023-04-09T12:45:30.826Z,98217.38
2023-04-09T12:47:58.011Z,98221.25
2023-04-09T12:50:24.652Z,98214.63
2023-04-09T12:52:51.181Z,98211.94
2023-04-09T12:55:17.672Z,98211.78
2023-04-09T12:57:47.145Z,98210.66
2023-04-09T13:00:14.338Z,98209.59
2023-04-09T13:02:41.525Z,98212.28
2023-04-09T13:05:11.366Z,98212.75
2023-04-09T13:07:42.920Z,98211.72
2023-04-09T13:10:10.274Z,98207.00
2023-04-09T13:12:36.731Z,98194.03
2023-04-09T13:15:03.467Z,98184.72
2023-04-09T13:17:29.990Z,98198.88
2023-04-09T13:19:56.571Z,98191.03
2023-04-09T13:22:23.100Z,98191.78
2023-04-09T13:24:49.568Z,98191.22
2023-04-09T13:27:16.640Z,98186.00
2023-04-09T13:29:43.212Z,98184.63
2023-04-09T13:32:12.376Z,98185.09
2023-04-09T13:34:42.029Z,98194.84
2023-04-09T13:37:11.416Z,98190.53
2023-04-09T13:39:41.219Z,98172.63
2023-04-09T13:42:14.190Z,98173.94
2023-04-09T13:44:42.425Z,98164.25
2023-04-09T13:47:13.497Z,98172.09
2023-04-09T13:49:40.726Z,98159.84
2023-04-09T13:52:11.062Z,98178.22
2023-04-09T13:54:40.580Z,98167.97
2023-04-09T13:57:09.092Z,98164.53
2023-04-09T13:59:36.111Z,98164.81
2023-04-09T14:02:02.695Z,98161.06
2023-04-09T14:04:29.362Z,98165.25
2023-04-09T14:06:57.207Z,98141.53
2023-04-09T14:09:23.670Z,98145.94
2023-04-09T14:11:50.974Z,98153.03
2023-04-09T14:14:18.089Z,98145.09
2023-04-09T14:16:44.550Z,98144.91
2023-04-09T14:19:11.110Z,98143.31
2023-04-09T14:21:38.969Z,98135.28
2023-04-09T14:24:05.966Z,98131.97
2023-04-09T14:26:32.444Z,98138.13
2023-04-09T14:28:59.053Z,98131.84
2023-04-09T14:31:26.043Z,98143.75
2023-04-09T14:33:52.559Z,98129.06
2023-04-09T14:36:19.118Z,98139.13
2023-04-09T14:38:46.083Z,98143.09
2023-04-09T14:41:12.694Z,98130.50
2023-04-09T14:43:42.261Z,98149.03
2023-04-09T14:46:12.166Z,98140.28
2023-04-09T14:48:41.566Z,98132.50
2023-04-09T14:51:11.317Z,98133.44
2023-04-09T14:53:43.076Z,98135.41
2023-04-09T14:56:09.570Z,98132.72
2023-04-09T14:58:37.998Z,98147.69
2023-04-09T15:01:04.893Z,98136.78
2023-04-09T15:03:31.924Z,98137.09
2023-04-09T15:05:59.565Z,98141.00
2023-04-09T15:08:28.431Z,98131.00
2023-04-09T15:10:55.058Z,98128.22
2023-04-09T15:13:21.799Z,98128.53
2023-04-09T15:15:48.506Z,98129.59
2023-04-09T15:18:15.620Z,98130.72
2023-04-09T15:20:43.445Z,98130.44
2023-04-09T15:23:10.726Z,98118.16
2023-04-09T15:25:38.374Z,98126.59
2023-04-09T15:28:05.927Z,98110.56
2023-04-09T15:30:32.445Z,98120.38
2023-04-09T15:32:58.995Z,98113.81
2023-04-09T15:35:29.082Z,98113.50
2023-04-09T15:37:56.874Z,98110.78
2023-04-09T15:40:23.362Z,98118.25
2023-04-09T15:42:49.817Z,98118.66
2023-04-09T15:45:17.108Z,98115.09
2023-04-09T15:47:44.602Z,98103.94
2023-04-09T15:50:11.276Z,98110.31
2023-04-09T15:52:40.747Z,98113.75
2023-04-09T15:55:10.332Z,98108.28
2023-04-09T15:57:40.129Z,98110.78
2023-04-09T16:00:10.613Z,98117.69
2023-04-09T16:02:39.485Z,98111.66
2023-04-09T16:05:09.155Z,98109.81
2023-04-09T16:07:35.649Z,98116.53
2023-04-09T16:10:02.560Z,98117.69
2023-04-09T16:12:29.112Z,98121.16
2023-04-09T16:14:55.593Z,98120.00
2023-04-09T16:17:22.090Z,98123.28
2023-04-09T16:19:48.598Z,98117.88
2023-04-09T16:22:15.049Z,98116.22
2023-04-09T16:24:41.568Z,98125.34
2023-04-09T16:27:13.023Z,98121.59
2023-04-09T16:29:39.873Z,98115.94
2023-04-09T16:32:08.888Z,98125.38
2023-04-09T16:34:35.859Z,98124.09
2023-04-09T16:37:02.471Z,98125.44
2023-04-09T16:39:29.556Z,98132.63
2023-04-09T16:41:58.274Z,98135.09
2023-04-09T16:44:25.413Z,98124.06
2023-04-09T16:46:52.003Z,98131.75
2023-04-09T16:49:18.566Z,98138.34
2023-04-09T16:51:46.098Z,98130.72
2023-04-09T16:54:13.321Z,98148.78
2023-04-09T16:56:42.540Z,98141.22
2023-04-09T16:59:12.151Z,98148.25
2023-04-09T17:01:41.764Z,98132.41
2023-04-09T17:04:10.949Z,98122.84
2023-04-09T17:07:08.790Z,98150.97
2023-04-09T17:09:35.920Z,98113.16
2023-04-09T17:12:02.565Z,98147.94
2023-04-09T17:14:33.899Z,98124.03
2023-04-09T17:17:00.784Z,98139.63
2023-04-09T17:19:27.347Z,98142.50
2023-04-09T17:21:53.915Z,98135.44
2023-04-09T17:24:20.375Z,98119.78
2023-04-09T17:26:46.836Z,98127.41
2023-04-09T17:29:13.730Z,98120.06
2023-04-09T17:31:40.294Z,98157.50
2023-04-09T17:34:09.024Z,98158.78
2023-04-09T17:36:35.545Z,98144.13
2023-04-09T17:39:02.477Z,98143.53
2023-04-09T17:41:29.021Z,98158.94
2023-04-09T17:43:55.524Z,98157.81
2023-04-09T17:46:22.195Z,98150.97
2023-04-09T17:48:48.781Z,98143.88
2023-04-09T17:51:20.024Z,98158.53
2023-04-09T17:53:47.388Z,98110.00
2023-04-09T17:56:18.062Z,98163.78
2023-04-09T17:58:45.063Z,98179.06
2023-04-09T18:01:13.387Z,98160.53
2023-04-09T18:03:45.515Z,98145.53
2023-04-09T18:06:12.541Z,98151.31
2023-04-09T18:08:43.335Z,98122.28
2023-04-09T18:11:15.453Z,98162.00
2023-04-09T18:13:42.012Z,98159.31
2023-04-09T18:16:12.510Z,98193.50
2023-04-09T18:18:42.070Z,98181.09
2023-04-09T18:21:11.678Z,98146.44
2023-04-09T18:23:41.279Z,98191.75
2023-04-09T18:26:11.494Z,98156.25
2023-04-09T18:28:40.310Z,98193.72
2023-04-09T18:31:09.491Z,98189.75
2023-04-09T18:33:36.465Z,98205.19
2023-04-09T18:36:03.382Z,98183.50
2023-04-09T18:38:30.516Z,98182.88
2023-04-09T18:40:57.752Z,98184.41
2023-04-09T18:43:26.056Z,98171.78
2023-04-09T18:45:52.731Z,98207.53
2023-04-09T18:48:19.421Z,98210.34
2023-04-09T18:50:46.122Z,98210.53
2023-04-09T18:53:12.720Z,98209.22
2023-04-09T18:55:42.292Z,98210.78
2023-04-09T18:58:14.918Z,98207.91
2023-04-09T19:00:42.294Z,98211.31
2023-04-09T19:03:11.141Z,98206.88
2023-04-09T19:05:40.034Z,98221.63
2023-04-09T19:08:10.646Z,98224.50
2023-04-09T19:10:37.366Z,98229.00
2023-04-09T19:13:03.858Z,98235.53
2023-04-09T19:15:30.437Z,98242.19
2023-04-09T19:17:57.393Z,98239.25
2023-04-09T19:20:23.924Z,98224.03
2023-04-09T19:26:50.821Z,98191.00
2023-04-09T19:29:49.722Z,98248.09
2023-04-09T19:32:18.834Z,98225.00
2023-04-09T19:35:51.667Z,98203.94
2023-04-09T19:38:18.684Z,98254.94
2023-04-09T19:40:45.893Z,98256.06
2023-04-09T19:43:12.618Z,98253.94
2023-04-09T19:45:45.336Z,98247.41
2023-04-09T19:48:12.703Z,98254.22
2023-04-09T19:50:43.437Z,98258.88
2023-04-09T19:53:12.860Z,98264.22
2023-04-09T19:55:40.934Z,98258.78
2023-04-09T19:58:10.173Z,98258.59
2023-04-09T20:00:36.691Z,98260.31
2023-04-09T20:03:05.781Z,98266.53
2023-04-09T20:05:32.713Z,98268.63
2023-04-09T20:07:59.398Z,98255.72
2023-04-09T20:10:25.871Z,98265.38
2023-04-09T20:12:52.409Z,98263.22
2023-04-09T20:15:21.961Z,98270.84
2023-04-09T20:17:49.658Z,98269.28
2023-04-09T20:20:20.177Z,98263.19
2023-04-09T20:22:55.585Z,98255.56
2023-04-09T20:25:23.183Z,98260.88
2023-04-09T20:27:52.353Z,98260.09
2023-04-09T20:30:18.893Z,98263.41
2023-04-09T20:32:45.395Z,98263.63
2023-04-09T20:35:13.567Z,98261.00
2023-04-09T20:37:43.189Z,98266.31
2023-04-09T20:40:12.695Z,98261.56
2023-04-09T20:42:41.280Z,98264.25
2023-04-09T20:45:11.597Z,98273.09
2023-04-09T20:47:39.426Z,98272.31
2023-04-09T20:50:06.554Z,98265.38
2023-04-09T20:52:33.046Z,98264.75
2023-04-09T20:54:59.638Z,98279.72
2023-04-09T20:57:26.101Z,98270.28
2023-04-09T20:59:55.197Z,98270.31
2023-04-09T21:02:22.340Z,98275.31
2023-04-09T21:04:48.951Z,98269.84
2023-04-09T21:07:15.698Z,98266.19
2023-04-09T21:09:42.157Z,98264.69
2023-04-09T21:12:13.004Z,98268.97
2023-04-09T21:16:54.704Z,98278.94
2023-04-09T21:18:08.887Z,98237.16
2023-04-09T21:20:35.521Z,98269.66
2023-04-09T21:23:01.978Z,98279.63
2023-04-09T21:25:29.527Z,98274.97
2023-04-09T21:27:56.295Z,98277.81
2023-04-09T21:30:23.017Z,98268.84
2023-04-09T21:32:49.460Z,98279.59
2023-04-09T21:35:16.345Z,98279.44
2023-04-09T21:37:46.444Z,98276.78
2023-04-09T21:40:17.867Z,98276.44
2023-04-09T21:42:44.406Z,98281.75
2023-04-09T21:45:13.177Z,98276.09
2023-04-09T21:47:40.033Z,98272.44
2023-04-09T21:50:07.331Z,98261.81
2023-04-09T21:52:34.410Z,98278.22
2023-04-09T21:55:00.924Z,98283.97
2023-04-09T21:57:27.443Z,98280.59
2023-04-09T21:59:53.862Z,98289.28
2023-04-09T22:02:20.568Z,98294.56
2023-04-09T22:04:47.119Z,98298.53
2023-04-09T22:07:13.697Z,98297.03
2023-04-09T22:09:40.385Z,98294.44
2023-04-09T22:12:07.254Z,98305.06
2023-04-09T22:14:33.809Z,98287.47
2023-04-09T22:17:01.761Z,98286.91
2023-04-09T22:19:30.087Z,98293.56
2023-04-09T22:21:57.246Z,98294.13
2023-04-09T22:24:26.882Z,98297.44
2023-04-09T22:26:53.624Z,98297.44
2023-04-09T22:29:20.185Z,98293.09
2023-04-09T22:31:46.698Z,98294.00
2023-04-09T22:34:20.821Z,98305.00
2023-04-09T22:36:48.279Z,98297.28
2023-04-09T22:39:15.493Z,98297.53
2023-04-09T22:41:41.957Z,98305.31
2023-04-09T22:44:09.653Z,98307.59
2023-04-09T22:46:36.601Z,98305.13
2023-04-09T22:49:05.627Z,98302.88
2023-04-09T22:51:34.759Z,98306.22
2023-04-09T22:54:02.187Z,98310.03
2023-04-09T22:56:30.123Z,98310.72
2023-04-09T22:58:56.549Z,98315.22
2023-04-09T23:01:23.253Z,98307.13
2023-04-09T23:03:50.742Z,98310.44
2023-04-09T23:06:17.324Z,98307.13
2023-04-09T23:08:44.380Z,98303.03
2023-04-09T23:11:11.321Z,98305.44
2023-04-09T23:13:38.540Z,98306.28
2023-04-09T23:16:08.926Z,98294.56
2023-04-09T23:18:36.353Z,98300.03
2023-04-09T23:21:12.505Z,98301.75
2023-04-09T23:23:39.158Z,98308.31
2023-04-09T23:26:06.172Z,98296.91
2023-04-09T23:28:32.926Z,98296.16
2023-04-09T23:30:59.640Z,98304.31
2023-04-09T23:33:26.236Z,98299.81
2023-04-09T23:35:52.854Z,98294.78
2023-04-09T23:38:22.411Z,98289.59
2023-04-09T23:40:51.938Z,98295.41
2023-04-09T23:43:21.655Z,98294.94
2023-04-09T23:45:50.407Z,98300.84
2023-04-09T23:48:16.914Z,98291.47
2023-04-09T23:50:43.373Z,98284.44
2023-04-09T23:53:09.890Z,98291.84
2023-04-09T23:55:41.395Z,98291.06
2023-04-09T23:58:08.272Z,98287.84
